Montgomery Center, Vermont
Current Conditions -  °F | °C
As of 7:54 AM on Tuesday 21 Oct 2014 (Local Time) from KMVL Reporting Station
Overcast Overcast  
Wind Chill: 41°   Ceiling: 5000
Heat Index: 41°   Visibility: 9mi
Dew Point: 39°   Wind: 0mph
Humidity: 93%   Direction: NA
Pressure: 29.99"   Gusts: NA
Location:  44.88°N, 72.6°W
Report Text: KMVL 211154Z AUTO 00000KT 9SM SCT041 BKN050 OVC080 05/04 A2999 RMK AO2 RAE28 SLP163 P0001 60008 70008 T00500039 10050 20033 53009
Loading
Personal Weather Stations






























Interactive Weather Map
Tropical Storm Tracking
New forecast layout! Learn more

10-Day Weather Forecast

Advertisements
Track Severe Weather on mobile